Tiptonville, TN (38079)

7:59 AM CDT on April 24, 2017 (GMT -0500)
Outside Obion, TN Mt. Moriah R/C airport | | Change Station

Elev 318 ft 36.29 °N, 89.23 °W | Updated 3 seconds ago

Clear
Clear
56.8 °F
Feels Like 56.8 °F
N
2.7
Wind Variable Wind from NNE
Gusts 4.9 mph

Today
High -- | Low -- °F
--% Chance of Precip.
Yesterday
High -- | Low -- °F
Precip. -- in
Pressure 29.95 in
Visibility 10.0 miles
Clouds Clear
Dew Point 25 °F
Humidity 29%
Rainfall 0.00 in
Snow Depth Not available.
6:12 AM 7:39 PM
Waning Crescent, 5% visible
METAR KDYR 241156Z AUTO 34004KT 10SM CLR 11/07 A2990 RMK AO2 SLP142 70002 T01060072 10106 20078 53007
Pressure 29.95 in
Visibility 10.0 miles
Clouds Clear
Dew Point 25 °F
Humidity 29%
Rainfall 0.00 in
Snow Depth Not available.
6:12 AM 7:39 PM
Waning Crescent, 5% visible
METAR KDYR 241156Z AUTO 34004KT 10SM CLR 11/07 A2990 RMK AO2 SLP142 70002 T01060072 10106 20078 53007

Get Severe Weather Alerts

Thanks for signing up!

Be on the lookout for a verification email in your inbox.

You'll start receiving the daily forecast at 8 AM.

×

10-Day Weather Forecast

Almanac

Astronomy

Apr. 24, 2017 Rise Set
Actual Time
Civil Twilight
Nautical Twilight
Astronomical Twilight
Moon
Length of Visible Light
Length of Day
Tomorrow will be .
, % of the Moon is Illuminated

Today's Extremes

State Highs State Lows

Community

WunderPhotos

WunderBlog® & News

Nearby

Air Quality

  Air Quality AQ Index Pollutant
Not available.

Snow Depth

Station Depth Elevation

Earthquake Activity

City Distance Mag. Time & Date
Minimum magnitude displayed is 2.5.

Coastal Water Temperatures

Place Temperature

Stations

Nearby Weather Stations

Station Location Temp. Windchill Dew Point Humidity Wind Precip. Elev Updated Type
                   

Watches & Warnings

There are currently no watches in effect.